sensor_id;sensor_type;location;lat;lon;timestamp;P1;durP1;ratioP1;P2;durP2;ratioP2
13090;SDS011;6611;52.604;13.438;2023-07-31T00:04:02;2.23;;;1.60;;
13090;SDS011;6611;52.604;13.438;2023-07-31T00:09:04;2.97;;;1.53;;
13090;SDS011;6611;52.604;13.438;2023-07-31T00:14:06;2.33;;;1.70;;
13090;SDS011;6611;52.604;13.438;2023-07-31T00:19:09;4.37;;;1.50;;
13090;SDS011;6611;52.604;13.438;2023-07-31T00:24:10;2.73;;;1.53;;
13090;SDS011;6611;52.604;13.438;2023-07-31T00:29:12;5.40;;;1.67;;
13090;SDS011;6611;52.604;13.438;2023-07-31T00:34:15;2.67;;;1.60;;
13090;SDS011;6611;52.604;13.438;2023-07-31T00:39:17;2.57;;;1.43;;
13090;SDS011;6611;52.604;13.438;2023-07-31T00:44:18;2.63;;;1.50;;
13090;SDS011;6611;52.604;13.438;2023-07-31T00:49:21;1.97;;;1.50;;
13090;SDS011;6611;52.604;13.438;2023-07-31T00:54:23;2.23;;;1.43;;
13090;SDS011;6611;52.604;13.438;2023-07-31T00:59:25;3.73;;;1.73;;
13090;SDS011;6611;52.604;13.438;2023-07-31T01:04:28;2.60;;;1.23;;
13090;SDS011;6611;52.604;13.438;2023-07-31T01:09:33;1.70;;;1.20;;
13090;SDS011;6611;52.604;13.438;2023-07-31T01:14:50;3.53;;;1.40;;
13090;SDS011;6611;52.604;13.438;2023-07-31T01:19:54;2.13;;;1.70;;
13090;SDS011;6611;52.604;13.438;2023-07-31T01:25:05;3.20;;;1.70;;
13090;SDS011;6611;52.604;13.438;2023-07-31T01:30:20;3.00;;;1.53;;
13090;SDS011;6611;52.604;13.438;2023-07-31T01:35:26;3.43;;;1.47;;
13090;SDS011;6611;52.604;13.438;2023-07-31T01:40:28;3.43;;;1.73;;
13090;SDS011;6611;52.604;13.438;2023-07-31T01:45:31;2.80;;;1.67;;
13090;SDS011;6611;52.604;13.438;2023-07-31T01:50:33;2.23;;;1.63;;
13090;SDS011;6611;52.604;13.438;2023-07-31T01:55:34;2.00;;;1.67;;
13090;SDS011;6611;52.604;13.438;2023-07-31T02:00:37;3.10;;;1.33;;
13090;SDS011;6611;52.604;13.438;2023-07-31T02:05:43;3.00;;;1.50;;
13090;SDS011;6611;52.604;13.438;2023-07-31T02:10:45;2.17;;;1.30;;
13090;SDS011;6611;52.604;13.438;2023-07-31T02:15:49;4.57;;;1.60;;
13090;SDS011;6611;52.604;13.438;2023-07-31T02:20:50;1.67;;;1.57;;
13090;SDS011;6611;52.604;13.438;2023-07-31T02:25:53;2.67;;;1.50;;
13090;SDS011;6611;52.604;13.438;2023-07-31T02:30:56;2.77;;;1.70;;
13090;SDS011;6611;52.604;13.438;2023-07-31T02:35:57;2.40;;;1.63;;
13090;SDS011;6611;52.604;13.438;2023-07-31T02:40:59;3.00;;;1.73;;
13090;SDS011;6611;52.604;13.438;2023-07-31T02:46:02;3.70;;;1.90;;
13090;SDS011;6611;52.604;13.438;2023-07-31T02:51:03;2.60;;;1.77;;
13090;SDS011;6611;52.604;13.438;2023-07-31T02:56:05;2.97;;;1.90;;
13090;SDS011;6611;52.604;13.438;2023-07-31T03:01:08;3.13;;;1.70;;
13090;SDS011;6611;52.604;13.438;2023-07-31T03:06:10;4.93;;;2.07;;
13090;SDS011;6611;52.604;13.438;2023-07-31T03:11:11;3.00;;;2.37;;
13090;SDS011;6611;52.604;13.438;2023-07-31T03:16:14;4.07;;;2.30;;
13090;SDS011;6611;52.604;13.438;2023-07-31T03:21:16;3.60;;;2.67;;
13090;SDS011;6611;52.604;13.438;2023-07-31T03:26:17;2.53;;;2.33;;
13090;SDS011;6611;52.604;13.438;2023-07-31T03:31:20;4.20;;;2.40;;
13090;SDS011;6611;52.604;13.438;2023-07-31T03:36:22;4.10;;;2.90;;
13090;SDS011;6611;52.604;13.438;2023-07-31T03:41:25;3.53;;;2.90;;
13090;SDS011;6611;52.604;13.438;2023-07-31T03:46:28;3.40;;;3.10;;
13090;SDS011;6611;52.604;13.438;2023-07-31T03:51:30;3.13;;;2.83;;
13090;SDS011;6611;52.604;13.438;2023-07-31T03:56:31;5.73;;;2.97;;
13090;SDS011;6611;52.604;13.438;2023-07-31T04:01:34;4.70;;;3.60;;
13090;SDS011;6611;52.604;13.438;2023-07-31T04:06:36;3.80;;;3.20;;
13090;SDS011;6611;52.604;13.438;2023-07-31T04:11:37;4.97;;;3.10;;
13090;SDS011;6611;52.604;13.438;2023-07-31T04:16:41;5.57;;;3.50;;
13090;SDS011;6611;52.604;13.438;2023-07-31T04:21:43;4.60;;;3.23;;
13090;SDS011;6611;52.604;13.438;2023-07-31T04:26:44;4.67;;;4.07;;
13090;SDS011;6611;52.604;13.438;2023-07-31T04:31:47;5.13;;;3.83;;
13090;SDS011;6611;52.604;13.438;2023-07-31T04:36:49;4.73;;;3.20;;
13090;SDS011;6611;52.604;13.438;2023-07-31T04:41:51;7.80;;;3.40;;
13090;SDS011;6611;52.604;13.438;2023-07-31T04:46:54;4.77;;;3.33;;
13090;SDS011;6611;52.604;13.438;2023-07-31T04:51:55;5.63;;;3.50;;
13090;SDS011;6611;52.604;13.438;2023-07-31T04:56:57;4.73;;;3.33;;
13090;SDS011;6611;52.604;13.438;2023-07-31T05:02:00;5.00;;;3.63;;
13090;SDS011;6611;52.604;13.438;2023-07-31T05:07:02;3.93;;;2.73;;
13090;SDS011;6611;52.604;13.438;2023-07-31T05:12:04;3.73;;;3.00;;
13090;SDS011;6611;52.604;13.438;2023-07-31T05:17:08;3.87;;;2.70;;
13090;SDS011;6611;52.604;13.438;2023-07-31T05:22:09;4.47;;;3.47;;
13090;SDS011;6611;52.604;13.438;2023-07-31T05:27:11;5.63;;;2.87;;
13090;SDS011;6611;52.604;13.438;2023-07-31T05:32:16;3.03;;;2.40;;
13090;SDS011;6611;52.604;13.438;2023-07-31T05:37:18;5.53;;;3.17;;
13090;SDS011;6611;52.604;13.438;2023-07-31T05:42:19;5.27;;;3.00;;
13090;SDS011;6611;52.604;13.438;2023-07-31T05:47:22;3.17;;;2.60;;
13090;SDS011;6611;52.604;13.438;2023-07-31T05:52:24;6.83;;;2.80;;
13090;SDS011;6611;52.604;13.438;2023-07-31T05:57:26;3.27;;;2.73;;
13090;SDS011;6611;52.604;13.438;2023-07-31T06:02:29;4.33;;;2.87;;
13090;SDS011;6611;52.604;13.438;2023-07-31T06:07:33;3.33;;;2.37;;
13090;SDS011;6611;52.604;13.438;2023-07-31T06:12:34;4.70;;;2.40;;
13090;SDS011;6611;52.604;13.438;2023-07-31T06:17:38;3.80;;;2.57;;
13090;SDS011;6611;52.604;13.438;2023-07-31T06:22:40;3.37;;;2.30;;
13090;SDS011;6611;52.604;13.438;2023-07-31T06:27:41;3.17;;;2.30;;
13090;SDS011;6611;52.604;13.438;2023-07-31T06:32:44;4.40;;;2.60;;
13090;SDS011;6611;52.604;13.438;2023-07-31T06:37:46;3.57;;;2.30;;
13090;SDS011;6611;52.604;13.438;2023-07-31T06:42:48;3.47;;;2.20;;
13090;SDS011;6611;52.604;13.438;2023-07-31T06:47:51;3.70;;;2.53;;
13090;SDS011;6611;52.604;13.438;2023-07-31T06:52:52;2.30;;;2.10;;
13090;SDS011;6611;52.604;13.438;2023-07-31T06:57:54;3.23;;;2.20;;
13090;SDS011;6611;52.604;13.438;2023-07-31T07:02:58;2.50;;;2.27;;
13090;SDS011;6611;52.604;13.438;2023-07-31T07:07:59;3.63;;;2.33;;
13090;SDS011;6611;52.604;13.438;2023-07-31T07:13:01;4.30;;;2.40;;
13090;SDS011;6611;52.604;13.438;2023-07-31T07:18:04;4.87;;;2.47;;
13090;SDS011;6611;52.604;13.438;2023-07-31T07:23:06;2.80;;;2.07;;
13090;SDS011;6611;52.604;13.438;2023-07-31T07:28:07;3.57;;;2.07;;
13090;SDS011;6611;52.604;13.438;2023-07-31T07:33:10;4.13;;;2.10;;
13090;SDS011;6611;52.604;13.438;2023-07-31T07:38:13;3.93;;;2.07;;
13090;SDS011;6611;52.604;13.438;2023-07-31T07:43:15;3.70;;;2.07;;
13090;SDS011;6611;52.604;13.438;2023-07-31T07:48:18;6.40;;;2.50;;
13090;SDS011;6611;52.604;13.438;2023-07-31T07:53:19;6.77;;;2.07;;
13090;SDS011;6611;52.604;13.438;2023-07-31T07:58:21;6.00;;;2.20;;
13090;SDS011;6611;52.604;13.438;2023-07-31T08:03:24;4.43;;;2.17;;
13090;SDS011;6611;52.604;13.438;2023-07-31T08:08:26;3.67;;;1.90;;
13090;SDS011;6611;52.604;13.438;2023-07-31T08:13:29;2.10;;;1.60;;
13090;SDS011;6611;52.604;13.438;2023-07-31T08:18:33;3.00;;;1.93;;
13090;SDS011;6611;52.604;13.438;2023-07-31T08:23:34;2.93;;;2.30;;
13090;SDS011;6611;52.604;13.438;2023-07-31T08:28:36;3.17;;;2.13;;
13090;SDS011;6611;52.604;13.438;2023-07-31T08:33:41;2.90;;;1.60;;
13090;SDS011;6611;52.604;13.438;2023-07-31T08:38:45;3.70;;;2.47;;
13090;SDS011;6611;52.604;13.438;2023-07-31T08:43:46;3.33;;;1.83;;
13090;SDS011;6611;52.604;13.438;2023-07-31T08:48:52;2.80;;;1.83;;
13090;SDS011;6611;52.604;13.438;2023-07-31T08:53:54;2.70;;;1.70;;
13090;SDS011;6611;52.604;13.438;2023-07-31T08:58:57;2.20;;;1.77;;
13090;SDS011;6611;52.604;13.438;2023-07-31T09:04:01;2.30;;;1.70;;
13090;SDS011;6611;52.604;13.438;2023-07-31T09:09:05;1.53;;;1.43;;
13090;SDS011;6611;52.604;13.438;2023-07-31T09:14:08;2.47;;;1.60;;
13090;SDS011;6611;52.604;13.438;2023-07-31T09:19:11;1.93;;;1.30;;
13090;SDS011;6611;52.604;13.438;2023-07-31T09:24:13;2.97;;;1.90;;
13090;SDS011;6611;52.604;13.438;2023-07-31T09:29:26;2.13;;;1.23;;
13090;SDS011;6611;52.604;13.438;2023-07-31T09:34:37;2.30;;;1.40;;
13090;SDS011;6611;52.604;13.438;2023-07-31T09:39:45;2.40;;;1.63;;
13090;SDS011;6611;52.604;13.438;2023-07-31T09:44:48;1.77;;;1.37;;
13090;SDS011;6611;52.604;13.438;2023-07-31T09:49:51;1.83;;;1.17;;
13090;SDS011;6611;52.604;13.438;2023-07-31T09:54:52;1.37;;;1.20;;
13090;SDS011;6611;52.604;13.438;2023-07-31T09:59:54;2.50;;;1.43;;
13090;SDS011;6611;52.604;13.438;2023-07-31T10:04:57;1.70;;;1.37;;
13090;SDS011;6611;52.604;13.438;2023-07-31T10:10:04;1.53;;;1.40;;
13090;SDS011;6611;52.604;13.438;2023-07-31T10:15:08;2.00;;;1.50;;
13090;SDS011;6611;52.604;13.438;2023-07-31T10:20:12;3.10;;;1.40;;
13090;SDS011;6611;52.604;13.438;2023-07-31T10:25:14;1.97;;;1.40;;
13090;SDS011;6611;52.604;13.438;2023-07-31T10:30:17;2.37;;;2.03;;
13090;SDS011;6611;52.604;13.438;2023-07-31T10:35:22;3.03;;;2.43;;
13090;SDS011;6611;52.604;13.438;2023-07-31T10:40:25;3.87;;;2.17;;
13090;SDS011;6611;52.604;13.438;2023-07-31T10:45:30;3.90;;;2.10;;
13090;SDS011;6611;52.604;13.438;2023-07-31T10:50:36;3.80;;;2.50;;
13090;SDS011;6611;52.604;13.438;2023-07-31T10:55:39;5.87;;;2.77;;
13090;SDS011;6611;52.604;13.438;2023-07-31T11:00:42;3.60;;;3.10;;
13090;SDS011;6611;52.604;13.438;2023-07-31T11:05:47;6.00;;;2.93;;
13090;SDS011;6611;52.604;13.438;2023-07-31T11:11:04;3.07;;;2.40;;
13090;SDS011;6611;52.604;13.438;2023-07-31T11:16:07;6.47;;;2.80;;
13090;SDS011;6611;52.604;13.438;2023-07-31T11:21:13;3.13;;;2.40;;
13090;SDS011;6611;52.604;13.438;2023-07-31T11:26:15;4.80;;;2.87;;
13090;SDS011;6611;52.604;13.438;2023-07-31T11:31:18;4.07;;;2.00;;
13090;SDS011;6611;52.604;13.438;2023-07-31T11:36:21;4.20;;;2.40;;
13090;SDS011;6611;52.604;13.438;2023-07-31T11:41:23;3.67;;;2.80;;
13090;SDS011;6611;52.604;13.438;2023-07-31T11:46:24;3.73;;;2.80;;
13090;SDS011;6611;52.604;13.438;2023-07-31T11:51:27;3.17;;;2.67;;
13090;SDS011;6611;52.604;13.438;2023-07-31T11:56:30;3.73;;;2.53;;
13090;SDS011;6611;52.604;13.438;2023-07-31T12:01:32;3.23;;;2.63;;
13090;SDS011;6611;52.604;13.438;2023-07-31T12:06:35;5.00;;;2.80;;
13090;SDS011;6611;52.604;13.438;2023-07-31T12:11:44;3.43;;;2.30;;
13090;SDS011;6611;52.604;13.438;2023-07-31T12:16:47;3.27;;;2.10;;
13090;SDS011;6611;52.604;13.438;2023-07-31T12:21:50;3.60;;;2.30;;
13090;SDS011;6611;52.604;13.438;2023-07-31T12:26:52;4.40;;;2.63;;
13090;SDS011;6611;52.604;13.438;2023-07-31T12:31:55;4.40;;;2.43;;
13090;SDS011;6611;52.604;13.438;2023-07-31T12:36:58;4.63;;;2.70;;
13090;SDS011;6611;52.604;13.438;2023-07-31T12:41:59;3.03;;;2.37;;
13090;SDS011;6611;52.604;13.438;2023-07-31T12:47:01;4.57;;;2.20;;
13090;SDS011;6611;52.604;13.438;2023-07-31T12:52:06;3.33;;;2.43;;
13090;SDS011;6611;52.604;13.438;2023-07-31T12:57:07;4.23;;;1.90;;
13090;SDS011;6611;52.604;13.438;2023-07-31T13:02:09;3.47;;;2.47;;
13090;SDS011;6611;52.604;13.438;2023-07-31T13:07:12;2.97;;;2.13;;
13090;SDS011;6611;52.604;13.438;2023-07-31T13:12:14;5.27;;;2.93;;
13090;SDS011;6611;52.604;13.438;2023-07-31T13:17:15;4.60;;;2.47;;
13090;SDS011;6611;52.604;13.438;2023-07-31T13:22:18;4.63;;;2.63;;
13090;SDS011;6611;52.604;13.438;2023-07-31T13:27:20;2.97;;;2.40;;
13090;SDS011;6611;52.604;13.438;2023-07-31T13:32:22;4.73;;;2.50;;
13090;SDS011;6611;52.604;13.438;2023-07-31T13:37:25;3.47;;;2.20;;
13090;SDS011;6611;52.604;13.438;2023-07-31T13:42:27;3.87;;;2.10;;
13090;SDS011;6611;52.604;13.438;2023-07-31T13:47:29;3.40;;;2.10;;
13090;SDS011;6611;52.604;13.438;2023-07-31T13:52:32;3.87;;;2.00;;
13090;SDS011;6611;52.604;13.438;2023-07-31T13:57:34;4.30;;;2.20;;
13090;SDS011;6611;52.604;13.438;2023-07-31T14:02:36;2.27;;;2.00;;
13090;SDS011;6611;52.604;13.438;2023-07-31T14:07:39;4.37;;;2.20;;
13090;SDS011;6611;52.604;13.438;2023-07-31T14:12:40;3.37;;;1.90;;
13090;SDS011;6611;52.604;13.438;2023-07-31T14:17:42;7.63;;;2.33;;
13090;SDS011;6611;52.604;13.438;2023-07-31T14:22:45;2.97;;;2.30;;
13090;SDS011;6611;52.604;13.438;2023-07-31T14:27:46;2.90;;;2.07;;
13090;SDS011;6611;52.604;13.438;2023-07-31T14:32:48;2.77;;;2.20;;
13090;SDS011;6611;52.604;13.438;2023-07-31T14:37:51;4.73;;;2.30;;
13090;SDS011;6611;52.604;13.438;2023-07-31T14:42:53;3.20;;;2.60;;
13090;SDS011;6611;52.604;13.438;2023-07-31T14:47:54;4.03;;;2.03;;
13090;SDS011;6611;52.604;13.438;2023-07-31T14:52:57;3.17;;;2.03;;
13090;SDS011;6611;52.604;13.438;2023-07-31T14:57:59;4.13;;;2.43;;
13090;SDS011;6611;52.604;13.438;2023-07-31T15:03:01;3.70;;;2.43;;
13090;SDS011;6611;52.604;13.438;2023-07-31T15:08:04;2.80;;;2.07;;
13090;SDS011;6611;52.604;13.438;2023-07-31T15:13:06;2.63;;;2.00;;
13090;SDS011;6611;52.604;13.438;2023-07-31T15:18:08;3.23;;;2.33;;
13090;SDS011;6611;52.604;13.438;2023-07-31T15:23:11;3.10;;;1.90;;
13090;SDS011;6611;52.604;13.438;2023-07-31T15:28:12;3.27;;;2.00;;
13090;SDS011;6611;52.604;13.438;2023-07-31T15:33:14;2.83;;;2.00;;
13090;SDS011;6611;52.604;13.438;2023-07-31T15:38:19;3.73;;;2.13;;
13090;SDS011;6611;52.604;13.438;2023-07-31T15:43:22;3.03;;;2.40;;
13090;SDS011;6611;52.604;13.438;2023-07-31T15:48:24;3.13;;;2.17;;
13090;SDS011;6611;52.604;13.438;2023-07-31T15:53:27;3.73;;;2.43;;
13090;SDS011;6611;52.604;13.438;2023-07-31T15:58:28;2.87;;;1.97;;
13090;SDS011;6611;52.604;13.438;2023-07-31T16:03:30;4.67;;;2.37;;
13090;SDS011;6611;52.604;13.438;2023-07-31T16:08:33;3.67;;;2.30;;
13090;SDS011;6611;52.604;13.438;2023-07-31T16:13:40;3.57;;;2.43;;
13090;SDS011;6611;52.604;13.438;2023-07-31T16:18:42;4.50;;;2.57;;
13090;SDS011;6611;52.604;13.438;2023-07-31T16:23:45;3.70;;;2.20;;
13090;SDS011;6611;52.604;13.438;2023-07-31T16:28:47;6.83;;;2.80;;
13090;SDS011;6611;52.604;13.438;2023-07-31T16:33:48;2.50;;;2.30;;
13090;SDS011;6611;52.604;13.438;2023-07-31T16:38:51;4.63;;;2.63;;
13090;SDS011;6611;52.604;13.438;2023-07-31T16:43:53;3.87;;;2.83;;
13090;SDS011;6611;52.604;13.438;2023-07-31T16:48:54;3.37;;;2.20;;
13090;SDS011;6611;52.604;13.438;2023-07-31T16:53:58;3.77;;;2.43;;
13090;SDS011;6611;52.604;13.438;2023-07-31T16:59:00;2.97;;;2.00;;
13090;SDS011;6611;52.604;13.438;2023-07-31T17:04:01;2.40;;;1.97;;
13090;SDS011;6611;52.604;13.438;2023-07-31T17:09:04;2.53;;;2.03;;
13090;SDS011;6611;52.604;13.438;2023-07-31T17:14:07;2.47;;;1.63;;
13090;SDS011;6611;52.604;13.438;2023-07-31T17:19:08;2.80;;;2.20;;
13090;SDS011;6611;52.604;13.438;2023-07-31T17:24:11;3.30;;;1.70;;
13090;SDS011;6611;52.604;13.438;2023-07-31T17:29:14;2.27;;;1.90;;
13090;SDS011;6611;52.604;13.438;2023-07-31T17:34:16;2.70;;;1.90;;
13090;SDS011;6611;52.604;13.438;2023-07-31T17:39:19;2.50;;;2.00;;
13090;SDS011;6611;52.604;13.438;2023-07-31T17:44:20;2.00;;;1.80;;
13090;SDS011;6611;52.604;13.438;2023-07-31T17:49:22;1.97;;;1.57;;
13090;SDS011;6611;52.604;13.438;2023-07-31T17:54:25;2.87;;;1.87;;
13090;SDS011;6611;52.604;13.438;2023-07-31T17:59:27;2.20;;;1.80;;
13090;SDS011;6611;52.604;13.438;2023-07-31T18:04:29;3.20;;;1.93;;
13090;SDS011;6611;52.604;13.438;2023-07-31T18:09:32;3.00;;;1.63;;
13090;SDS011;6611;52.604;13.438;2023-07-31T18:14:34;2.47;;;2.07;;
13090;SDS011;6611;52.604;13.438;2023-07-31T18:19:37;3.27;;;1.83;;
13090;SDS011;6611;52.604;13.438;2023-07-31T18:24:40;2.47;;;1.80;;
13090;SDS011;6611;52.604;13.438;2023-07-31T18:29:42;2.27;;;2.00;;
13090;SDS011;6611;52.604;13.438;2023-07-31T18:34:44;3.10;;;1.97;;
13090;SDS011;6611;52.604;13.438;2023-07-31T18:39:47;2.90;;;2.30;;
13090;SDS011;6611;52.604;13.438;2023-07-31T18:44:49;3.07;;;1.80;;
13090;SDS011;6611;52.604;13.438;2023-07-31T18:49:50;2.10;;;1.90;;
13090;SDS011;6611;52.604;13.438;2023-07-31T18:54:53;3.27;;;2.37;;
13090;SDS011;6611;52.604;13.438;2023-07-31T18:59:55;2.93;;;2.10;;
13090;SDS011;6611;52.604;13.438;2023-07-31T19:04:57;2.53;;;2.13;;
13090;SDS011;6611;52.604;13.438;2023-07-31T19:10:00;5.43;;;2.17;;
13090;SDS011;6611;52.604;13.438;2023-07-31T19:15:02;3.93;;;2.40;;
13090;SDS011;6611;52.604;13.438;2023-07-31T19:20:04;4.10;;;2.30;;
13090;SDS011;6611;52.604;13.438;2023-07-31T19:25:09;3.30;;;1.97;;
13090;SDS011;6611;52.604;13.438;2023-07-31T19:30:10;6.30;;;2.10;;
13090;SDS011;6611;52.604;13.438;2023-07-31T19:35:14;2.90;;;2.60;;
13090;SDS011;6611;52.604;13.438;2023-07-31T19:40:17;5.43;;;2.47;;
13090;SDS011;6611;52.604;13.438;2023-07-31T19:45:21;4.73;;;2.33;;
13090;SDS011;6611;52.604;13.438;2023-07-31T19:50:23;3.03;;;1.87;;
13090;SDS011;6611;52.604;13.438;2023-07-31T19:55:26;4.50;;;2.37;;
13090;SDS011;6611;52.604;13.438;2023-07-31T20:00:29;5.00;;;2.53;;
13090;SDS011;6611;52.604;13.438;2023-07-31T20:05:31;3.50;;;2.30;;
13090;SDS011;6611;52.604;13.438;2023-07-31T20:10:34;2.63;;;2.00;;
13090;SDS011;6611;52.604;13.438;2023-07-31T20:15:36;2.60;;;2.00;;
13090;SDS011;6611;52.604;13.438;2023-07-31T20:20:37;2.93;;;2.20;;
13090;SDS011;6611;52.604;13.438;2023-07-31T20:25:40;3.60;;;2.47;;
13090;SDS011;6611;52.604;13.438;2023-07-31T20:30:43;4.73;;;2.83;;
13090;SDS011;6611;52.604;13.438;2023-07-31T20:35:44;3.93;;;2.50;;
13090;SDS011;6611;52.604;13.438;2023-07-31T20:40:48;4.00;;;2.50;;
13090;SDS011;6611;52.604;13.438;2023-07-31T20:45:51;4.07;;;2.83;;
13090;SDS011;6611;52.604;13.438;2023-07-31T20:50:52;4.13;;;2.30;;
13090;SDS011;6611;52.604;13.438;2023-07-31T20:55:55;3.77;;;2.83;;
13090;SDS011;6611;52.604;13.438;2023-07-31T21:00:58;4.30;;;2.60;;
13090;SDS011;6611;52.604;13.438;2023-07-31T21:05:59;3.20;;;2.40;;
13090;SDS011;6611;52.604;13.438;2023-07-31T21:11:02;3.50;;;2.20;;
13090;SDS011;6611;52.604;13.438;2023-07-31T21:16:04;3.87;;;2.63;;
13090;SDS011;6611;52.604;13.438;2023-07-31T21:21:06;5.00;;;2.90;;
13090;SDS011;6611;52.604;13.438;2023-07-31T21:26:09;3.67;;;2.87;;
13090;SDS011;6611;52.604;13.438;2023-07-31T21:31:11;4.63;;;2.30;;
13090;SDS011;6611;52.604;13.438;2023-07-31T21:36:13;4.50;;;2.97;;
13090;SDS011;6611;52.604;13.438;2023-07-31T21:41:16;4.00;;;2.50;;
13090;SDS011;6611;52.604;13.438;2023-07-31T21:46:18;5.03;;;2.60;;
13090;SDS011;6611;52.604;13.438;2023-07-31T21:51:19;8.30;;;2.70;;
13090;SDS011;6611;52.604;13.438;2023-07-31T21:56:22;4.53;;;2.80;;
13090;SDS011;6611;52.604;13.438;2023-07-31T22:01:24;6.97;;;3.27;;
13090;SDS011;6611;52.604;13.438;2023-07-31T22:06:26;3.43;;;2.60;;
13090;SDS011;6611;52.604;13.438;2023-07-31T22:11:29;4.77;;;2.80;;
13090;SDS011;6611;52.604;13.438;2023-07-31T22:16:31;4.07;;;2.83;;
13090;SDS011;6611;52.604;13.438;2023-07-31T22:21:34;4.37;;;3.20;;
13090;SDS011;6611;52.604;13.438;2023-07-31T22:26:38;2.87;;;2.30;;
13090;SDS011;6611;52.604;13.438;2023-07-31T22:31:40;4.07;;;2.97;;
13090;SDS011;6611;52.604;13.438;2023-07-31T22:36:43;5.90;;;3.17;;
13090;SDS011;6611;52.604;13.438;2023-07-31T22:41:46;6.50;;;3.33;;
13090;SDS011;6611;52.604;13.438;2023-07-31T22:46:48;5.57;;;3.30;;
13090;SDS011;6611;52.604;13.438;2023-07-31T22:51:50;6.47;;;3.20;;
13090;SDS011;6611;52.604;13.438;2023-07-31T22:56:53;4.73;;;3.00;;
13090;SDS011;6611;52.604;13.438;2023-07-31T23:01:55;4.93;;;3.30;;
13090;SDS011;6611;52.604;13.438;2023-07-31T23:06:57;4.10;;;2.53;;
13090;SDS011;6611;52.604;13.438;2023-07-31T23:12:00;3.37;;;2.73;;
13090;SDS011;6611;52.604;13.438;2023-07-31T23:17:01;4.60;;;3.10;;
13090;SDS011;6611;52.604;13.438;2023-07-31T23:22:03;6.73;;;3.20;;
13090;SDS011;6611;52.604;13.438;2023-07-31T23:27:07;4.87;;;3.07;;
13090;SDS011;6611;52.604;13.438;2023-07-31T23:32:08;5.10;;;3.00;;
13090;SDS011;6611;52.604;13.438;2023-07-31T23:37:11;3.67;;;2.87;;
13090;SDS011;6611;52.604;13.438;2023-07-31T23:42:14;7.17;;;3.37;;
13090;SDS011;6611;52.604;13.438;2023-07-31T23:47:15;4.93;;;3.07;;
13090;SDS011;6611;52.604;13.438;2023-07-31T23:52:17;5.63;;;3.60;;
13090;SDS011;6611;52.604;13.438;2023-07-31T23:57:20;4.13;;;3.30;;
